sensor_id;sensor_type;location;lat;lon;timestamp;P1;durP1;ratioP1;P2;durP2;ratioP2
73337;SDS011;61575;49.908;35.556;2023-11-18T00:01:37;22.77;;;10.20;;
73337;SDS011;61575;49.908;35.556;2023-11-18T00:04:39;22.75;;;10.68;;
73337;SDS011;61575;49.908;35.556;2023-11-18T00:07:41;22.87;;;9.63;;
73337;SDS011;61575;49.908;35.556;2023-11-18T00:10:43;22.30;;;10.30;;
73337;SDS011;61575;49.908;35.556;2023-11-18T00:13:45;25.20;;;10.00;;
73337;SDS011;61575;49.908;35.556;2023-11-18T00:16:48;23.25;;;10.35;;
73337;SDS011;61575;49.908;35.556;2023-11-18T00:19:51;26.65;;;10.73;;
73337;SDS011;61575;49.908;35.556;2023-11-18T00:22:53;23.53;;;10.40;;
73337;SDS011;61575;49.908;35.556;2023-11-18T00:25:55;22.20;;;9.63;;
73337;SDS011;61575;49.908;35.556;2023-11-18T00:28:57;24.60;;;11.30;;
73337;SDS011;61575;49.908;35.556;2023-11-18T00:32:00;24.87;;;11.27;;
73337;SDS011;61575;49.908;35.556;2023-11-18T00:35:05;23.85;;;10.30;;
73337;SDS011;61575;49.908;35.556;2023-11-18T00:38:08;23.13;;;10.38;;
73337;SDS011;61575;49.908;35.556;2023-11-18T00:41:10;22.27;;;9.83;;
73337;SDS011;61575;49.908;35.556;2023-11-18T00:44:12;23.15;;;10.77;;
73337;SDS011;61575;49.908;35.556;2023-11-18T00:47:15;24.42;;;10.57;;
73337;SDS011;61575;49.908;35.556;2023-11-18T00:50:17;23.88;;;10.77;;
73337;SDS011;61575;49.908;35.556;2023-11-18T00:53:19;23.87;;;10.53;;
73337;SDS011;61575;49.908;35.556;2023-11-18T00:56:21;21.23;;;9.82;;
73337;SDS011;61575;49.908;35.556;2023-11-18T00:59:23;22.90;;;10.65;;
73337;SDS011;61575;49.908;35.556;2023-11-18T01:02:25;25.88;;;10.25;;
73337;SDS011;61575;49.908;35.556;2023-11-18T01:05:28;26.02;;;10.43;;
73337;SDS011;61575;49.908;35.556;2023-11-18T01:08:33;23.77;;;10.27;;
73337;SDS011;61575;49.908;35.556;2023-11-18T01:11:35;20.58;;;9.35;;
73337;SDS011;61575;49.908;35.556;2023-11-18T01:14:37;22.50;;;9.97;;
73337;SDS011;61575;49.908;35.556;2023-11-18T01:17:41;24.70;;;11.18;;
73337;SDS011;61575;49.908;35.556;2023-11-18T01:20:43;24.00;;;10.03;;
73337;SDS011;61575;49.908;35.556;2023-11-18T01:23:45;20.70;;;8.47;;
73337;SDS011;61575;49.908;35.556;2023-11-18T01:26:47;23.53;;;10.40;;
73337;SDS011;61575;49.908;35.556;2023-11-18T01:29:49;24.03;;;10.13;;
73337;SDS011;61575;49.908;35.556;2023-11-18T01:32:51;22.10;;;9.53;;
73337;SDS011;61575;49.908;35.556;2023-11-18T01:35:53;18.83;;;9.07;;
73337;SDS011;61575;49.908;35.556;2023-11-18T01:38:56;21.17;;;8.25;;
73337;SDS011;61575;49.908;35.556;2023-11-18T01:41:58;20.65;;;8.60;;
73337;SDS011;61575;49.908;35.556;2023-11-18T01:45:05;20.38;;;9.32;;
73337;SDS011;61575;49.908;35.556;2023-11-18T01:48:13;23.25;;;9.70;;
73337;SDS011;61575;49.908;35.556;2023-11-18T01:51:15;21.50;;;9.55;;
73337;SDS011;61575;49.908;35.556;2023-11-18T01:54:17;24.52;;;10.23;;
73337;SDS011;61575;49.908;35.556;2023-11-18T01:57:21;23.98;;;10.32;;
73337;SDS011;61575;49.908;35.556;2023-11-18T02:00:23;26.30;;;10.02;;
73337;SDS011;61575;49.908;35.556;2023-11-18T02:03:26;24.63;;;9.98;;
73337;SDS011;61575;49.908;35.556;2023-11-18T02:06:28;22.95;;;10.20;;
73337;SDS011;61575;49.908;35.556;2023-11-18T02:09:31;24.43;;;10.17;;
73337;SDS011;61575;49.908;35.556;2023-11-18T02:15:41;23.35;;;10.00;;
73337;SDS011;61575;49.908;35.556;2023-11-18T02:18:44;22.02;;;10.07;;
73337;SDS011;61575;49.908;35.556;2023-11-18T02:21:48;26.70;;;12.10;;
73337;SDS011;61575;49.908;35.556;2023-11-18T02:27:54;25.33;;;11.00;;
73337;SDS011;61575;49.908;35.556;2023-11-18T02:31:01;21.65;;;10.30;;
73337;SDS011;61575;49.908;35.556;2023-11-18T02:34:16;24.52;;;10.35;;
73337;SDS011;61575;49.908;35.556;2023-11-18T02:37:22;21.23;;;9.80;;
73337;SDS011;61575;49.908;35.556;2023-11-18T02:40:32;23.70;;;10.52;;
73337;SDS011;61575;49.908;35.556;2023-11-18T02:43:37;23.95;;;9.82;;
73337;SDS011;61575;49.908;35.556;2023-11-18T02:46:41;18.35;;;8.50;;
73337;SDS011;61575;49.908;35.556;2023-11-18T02:49:45;21.40;;;8.88;;
73337;SDS011;61575;49.908;35.556;2023-11-18T02:52:50;19.33;;;8.48;;
73337;SDS011;61575;49.908;35.556;2023-11-18T02:55:52;22.70;;;8.30;;
73337;SDS011;61575;49.908;35.556;2023-11-18T02:58:54;19.45;;;9.05;;
73337;SDS011;61575;49.908;35.556;2023-11-18T03:01:56;19.05;;;8.02;;
73337;SDS011;61575;49.908;35.556;2023-11-18T03:04:58;17.07;;;7.77;;
73337;SDS011;61575;49.908;35.556;2023-11-18T03:08:01;17.05;;;7.78;;
73337;SDS011;61575;49.908;35.556;2023-11-18T03:11:03;13.73;;;6.17;;
73337;SDS011;61575;49.908;35.556;2023-11-18T03:14:06;14.93;;;6.90;;
73337;SDS011;61575;49.908;35.556;2023-11-18T03:17:11;15.18;;;7.30;;
73337;SDS011;61575;49.908;35.556;2023-11-18T03:20:13;16.20;;;7.10;;
73337;SDS011;61575;49.908;35.556;2023-11-18T03:23:18;14.57;;;7.07;;
73337;SDS011;61575;49.908;35.556;2023-11-18T03:26:20;15.17;;;7.43;;
73337;SDS011;61575;49.908;35.556;2023-11-18T03:29:22;14.43;;;7.43;;
73337;SDS011;61575;49.908;35.556;2023-11-18T03:32:24;13.25;;;6.88;;
73337;SDS011;61575;49.908;35.556;2023-11-18T03:35:26;16.73;;;7.47;;
73337;SDS011;61575;49.908;35.556;2023-11-18T03:38:29;14.88;;;7.45;;
73337;SDS011;61575;49.908;35.556;2023-11-18T03:41:31;15.50;;;6.73;;
73337;SDS011;61575;49.908;35.556;2023-11-18T03:44:33;17.85;;;7.32;;
73337;SDS011;61575;49.908;35.556;2023-11-18T03:47:35;15.18;;;7.68;;
73337;SDS011;61575;49.908;35.556;2023-11-18T03:50:38;13.75;;;7.13;;
73337;SDS011;61575;49.908;35.556;2023-11-18T03:53:40;14.18;;;7.05;;
73337;SDS011;61575;49.908;35.556;2023-11-18T03:56:42;15.50;;;7.20;;
73337;SDS011;61575;49.908;35.556;2023-11-18T03:59:44;15.80;;;7.72;;
73337;SDS011;61575;49.908;35.556;2023-11-18T04:02:46;14.82;;;7.35;;
73337;SDS011;61575;49.908;35.556;2023-11-18T04:05:49;13.93;;;6.75;;
73337;SDS011;61575;49.908;35.556;2023-11-18T04:08:51;14.73;;;7.63;;
73337;SDS011;61575;49.908;35.556;2023-11-18T04:11:53;14.95;;;7.28;;
73337;SDS011;61575;49.908;35.556;2023-11-18T04:14:56;16.00;;;6.97;;
73337;SDS011;61575;49.908;35.556;2023-11-18T04:17:59;16.52;;;7.60;;
73337;SDS011;61575;49.908;35.556;2023-11-18T04:21:01;15.85;;;6.68;;
73337;SDS011;61575;49.908;35.556;2023-11-18T04:24:04;17.73;;;7.43;;
73337;SDS011;61575;49.908;35.556;2023-11-18T04:30:09;14.07;;;6.80;;
73337;SDS011;61575;49.908;35.556;2023-11-18T04:33:11;15.02;;;6.63;;
73337;SDS011;61575;49.908;35.556;2023-11-18T04:36:15;11.80;;;6.28;;
73337;SDS011;61575;49.908;35.556;2023-11-18T04:39:17;16.00;;;6.97;;
73337;SDS011;61575;49.908;35.556;2023-11-18T04:42:19;13.70;;;6.95;;
73337;SDS011;61575;49.908;35.556;2023-11-18T04:45:21;13.53;;;6.53;;
73337;SDS011;61575;49.908;35.556;2023-11-18T04:51:26;11.63;;;5.75;;
73337;SDS011;61575;49.908;35.556;2023-11-18T04:54:28;12.40;;;5.78;;
73337;SDS011;61575;49.908;35.556;2023-11-18T04:57:31;10.73;;;5.88;;
73337;SDS011;61575;49.908;35.556;2023-11-18T05:00:33;11.15;;;5.75;;
73337;SDS011;61575;49.908;35.556;2023-11-18T05:03:35;10.73;;;5.87;;
73337;SDS011;61575;49.908;35.556;2023-11-18T05:06:38;9.73;;;5.20;;
73337;SDS011;61575;49.908;35.556;2023-11-18T05:09:40;9.47;;;4.97;;
73337;SDS011;61575;49.908;35.556;2023-11-18T05:12:42;10.15;;;6.05;;
73337;SDS011;61575;49.908;35.556;2023-11-18T05:15:54;9.55;;;4.85;;
73337;SDS011;61575;49.908;35.556;2023-11-18T05:18:56;8.80;;;4.82;;
73337;SDS011;61575;49.908;35.556;2023-11-18T05:21:58;9.03;;;4.60;;
73337;SDS011;61575;49.908;35.556;2023-11-18T05:25:01;9.38;;;4.70;;
73337;SDS011;61575;49.908;35.556;2023-11-18T05:28:03;8.10;;;4.00;;
73337;SDS011;61575;49.908;35.556;2023-11-18T05:37:12;9.73;;;4.65;;
73337;SDS011;61575;49.908;35.556;2023-11-18T05:40:14;8.02;;;4.07;;
73337;SDS011;61575;49.908;35.556;2023-11-18T05:43:17;9.93;;;4.90;;
73337;SDS011;61575;49.908;35.556;2023-11-18T05:46:23;10.05;;;4.85;;
73337;SDS011;61575;49.908;35.556;2023-11-18T05:49:32;8.70;;;4.45;;
73337;SDS011;61575;49.908;35.556;2023-11-18T05:52:35;8.80;;;4.72;;
73337;SDS011;61575;49.908;35.556;2023-11-18T05:55:37;10.87;;;5.20;;
73337;SDS011;61575;49.908;35.556;2023-11-18T05:58:39;7.33;;;3.80;;
73337;SDS011;61575;49.908;35.556;2023-11-18T06:01:41;9.60;;;4.30;;
73337;SDS011;61575;49.908;35.556;2023-11-18T06:04:44;10.40;;;4.75;;
73337;SDS011;61575;49.908;35.556;2023-11-18T06:10:49;7.93;;;4.10;;
73337;SDS011;61575;49.908;35.556;2023-11-18T06:13:53;7.72;;;3.90;;
73337;SDS011;61575;49.908;35.556;2023-11-18T06:16:55;8.13;;;3.63;;
73337;SDS011;61575;49.908;35.556;2023-11-18T06:19:57;7.82;;;4.13;;
73337;SDS011;61575;49.908;35.556;2023-11-18T06:22:59;6.67;;;3.70;;
73337;SDS011;61575;49.908;35.556;2023-11-18T06:26:02;7.60;;;3.77;;
73337;SDS011;61575;49.908;35.556;2023-11-18T06:32:07;8.13;;;4.10;;
73337;SDS011;61575;49.908;35.556;2023-11-18T06:35:09;9.25;;;4.40;;
73337;SDS011;61575;49.908;35.556;2023-11-18T06:38:13;8.88;;;4.68;;
73337;SDS011;61575;49.908;35.556;2023-11-18T06:41:16;9.60;;;5.47;;
73337;SDS011;61575;49.908;35.556;2023-11-18T06:44:19;7.10;;;4.13;;
73337;SDS011;61575;49.908;35.556;2023-11-18T06:47:25;8.07;;;4.65;;
73337;SDS011;61575;49.908;35.556;2023-11-18T06:50:27;8.75;;;4.00;;
73337;SDS011;61575;49.908;35.556;2023-11-18T06:53:29;7.27;;;3.80;;
73337;SDS011;61575;49.908;35.556;2023-11-18T06:56:31;7.18;;;3.65;;
73337;SDS011;61575;49.908;35.556;2023-11-18T06:59:34;8.48;;;3.95;;
73337;SDS011;61575;49.908;35.556;2023-11-18T07:02:36;7.57;;;3.80;;
73337;SDS011;61575;49.908;35.556;2023-11-18T07:05:40;7.60;;;3.70;;
73337;SDS011;61575;49.908;35.556;2023-11-18T07:08:43;6.50;;;3.80;;
73337;SDS011;61575;49.908;35.556;2023-11-18T07:14:49;6.47;;;3.80;;
73337;SDS011;61575;49.908;35.556;2023-11-18T07:17:51;7.47;;;3.88;;
73337;SDS011;61575;49.908;35.556;2023-11-18T07:21:01;7.43;;;3.47;;
73337;SDS011;61575;49.908;35.556;2023-11-18T07:24:06;6.78;;;3.70;;
73337;SDS011;61575;49.908;35.556;2023-11-18T07:27:08;8.25;;;4.20;;
73337;SDS011;61575;49.908;35.556;2023-11-18T07:30:13;6.28;;;3.65;;
73337;SDS011;61575;49.908;35.556;2023-11-18T07:33:18;8.88;;;4.43;;
73337;SDS011;61575;49.908;35.556;2023-11-18T07:36:23;8.88;;;3.75;;
73337;SDS011;61575;49.908;35.556;2023-11-18T07:39:25;8.65;;;3.92;;
73337;SDS011;61575;49.908;35.556;2023-11-18T07:42:45;7.75;;;4.00;;
73337;SDS011;61575;49.908;35.556;2023-11-18T07:45:48;6.90;;;3.90;;
73337;SDS011;61575;49.908;35.556;2023-11-18T07:48:54;8.18;;;4.20;;
73337;SDS011;61575;49.908;35.556;2023-11-18T07:51:57;8.95;;;4.57;;
73337;SDS011;61575;49.908;35.556;2023-11-18T07:54:59;6.60;;;3.93;;
73337;SDS011;61575;49.908;35.556;2023-11-18T07:58:01;6.70;;;3.78;;
73337;SDS011;61575;49.908;35.556;2023-11-18T08:01:03;7.32;;;3.63;;
73337;SDS011;61575;49.908;35.556;2023-11-18T08:04:08;7.45;;;4.25;;
73337;SDS011;61575;49.908;35.556;2023-11-18T08:07:10;7.10;;;3.33;;
73337;SDS011;61575;49.908;35.556;2023-11-18T08:10:12;6.40;;;3.60;;
73337;SDS011;61575;49.908;35.556;2023-11-18T08:13:14;7.10;;;3.70;;
73337;SDS011;61575;49.908;35.556;2023-11-18T08:16:17;7.03;;;3.80;;
73337;SDS011;61575;49.908;35.556;2023-11-18T08:19:19;7.68;;;3.67;;
73337;SDS011;61575;49.908;35.556;2023-11-18T08:22:24;7.00;;;3.55;;
73337;SDS011;61575;49.908;35.556;2023-11-18T08:25:26;6.78;;;4.03;;
73337;SDS011;61575;49.908;35.556;2023-11-18T08:28:28;7.13;;;3.80;;
73337;SDS011;61575;49.908;35.556;2023-11-18T08:31:30;7.00;;;4.07;;
73337;SDS011;61575;49.908;35.556;2023-11-18T08:34:34;7.82;;;4.00;;
73337;SDS011;61575;49.908;35.556;2023-11-18T08:37:40;6.95;;;3.53;;
73337;SDS011;61575;49.908;35.556;2023-11-18T08:40:44;6.38;;;3.58;;
73337;SDS011;61575;49.908;35.556;2023-11-18T08:43:47;6.07;;;3.08;;
73337;SDS011;61575;49.908;35.556;2023-11-18T08:46:51;5.65;;;3.15;;
73337;SDS011;61575;49.908;35.556;2023-11-18T08:49:54;7.22;;;4.32;;
73337;SDS011;61575;49.908;35.556;2023-11-18T08:52:56;6.28;;;3.13;;
73337;SDS011;61575;49.908;35.556;2023-11-18T08:56:02;6.13;;;3.30;;
73337;SDS011;61575;49.908;35.556;2023-11-18T08:59:07;7.05;;;3.70;;
73337;SDS011;61575;49.908;35.556;2023-11-18T09:02:10;6.25;;;3.47;;
73337;SDS011;61575;49.908;35.556;2023-11-18T09:05:16;5.38;;;3.30;;
73337;SDS011;61575;49.908;35.556;2023-11-18T09:08:21;6.20;;;3.30;;
73337;SDS011;61575;49.908;35.556;2023-11-18T09:11:31;6.25;;;3.70;;
73337;SDS011;61575;49.908;35.556;2023-11-18T09:14:34;6.63;;;3.50;;
73337;SDS011;61575;49.908;35.556;2023-11-18T09:17:37;5.67;;;3.30;;
73337;SDS011;61575;49.908;35.556;2023-11-18T09:20:39;6.57;;;3.33;;
73337;SDS011;61575;49.908;35.556;2023-11-18T09:23:42;7.80;;;3.80;;
73337;SDS011;61575;49.908;35.556;2023-11-18T09:26:45;5.80;;;3.50;;
73337;SDS011;61575;49.908;35.556;2023-11-18T09:29:49;6.15;;;3.30;;
73337;SDS011;61575;49.908;35.556;2023-11-18T09:32:51;6.57;;;3.53;;
73337;SDS011;61575;49.908;35.556;2023-11-18T09:35:53;66.60;;;23.40;;
73337;SDS011;61575;49.908;35.556;2023-11-18T09:39:01;33.17;;;11.40;;
73337;SDS011;61575;49.908;35.556;2023-11-18T09:42:05;34.67;;;11.27;;
73337;SDS011;61575;49.908;35.556;2023-11-18T09:45:10;7.00;;;3.97;;
73337;SDS011;61575;49.908;35.556;2023-11-18T09:48:16;5.72;;;3.10;;
73337;SDS011;61575;49.908;35.556;2023-11-18T09:51:22;5.90;;;3.22;;
73337;SDS011;61575;49.908;35.556;2023-11-18T09:58:05;6.10;;;3.40;;
73337;SDS011;61575;49.908;35.556;2023-11-18T10:01:15;7.30;;;3.58;;
73337;SDS011;61575;49.908;35.556;2023-11-18T10:04:23;6.72;;;3.50;;
73337;SDS011;61575;49.908;35.556;2023-11-18T10:07:29;7.97;;;3.80;;
73337;SDS011;61575;49.908;35.556;2023-11-18T10:10:35;6.18;;;3.47;;
73337;SDS011;61575;49.908;35.556;2023-11-18T10:13:40;5.45;;;3.10;;
73337;SDS011;61575;49.908;35.556;2023-11-18T10:16:43;6.95;;;3.53;;
73337;SDS011;61575;49.908;35.556;2023-11-18T10:23:15;5.50;;;3.10;;
73337;SDS011;61575;49.908;35.556;2023-11-18T10:26:24;5.90;;;3.30;;
73337;SDS011;61575;49.908;35.556;2023-11-18T10:29:27;5.90;;;3.17;;
73337;SDS011;61575;49.908;35.556;2023-11-18T10:32:30;5.65;;;3.10;;
73337;SDS011;61575;49.908;35.556;2023-11-18T10:35:38;16.42;;;6.68;;
73337;SDS011;61575;49.908;35.556;2023-11-18T10:38:40;5.68;;;3.53;;
73337;SDS011;61575;49.908;35.556;2023-11-18T10:41:51;9.43;;;4.43;;
73337;SDS011;61575;49.908;35.556;2023-11-18T10:44:54;10.90;;;5.82;;
73337;SDS011;61575;49.908;35.556;2023-11-18T10:48:01;8.20;;;4.13;;
73337;SDS011;61575;49.908;35.556;2023-11-18T10:51:04;11.47;;;4.80;;
73337;SDS011;61575;49.908;35.556;2023-11-18T10:54:08;9.13;;;3.80;;
73337;SDS011;61575;49.908;35.556;2023-11-18T10:57:16;6.75;;;3.53;;
73337;SDS011;61575;49.908;35.556;2023-11-18T11:00:19;5.37;;;3.07;;
73337;SDS011;61575;49.908;35.556;2023-11-18T11:03:21;6.18;;;3.00;;
73337;SDS011;61575;49.908;35.556;2023-11-18T11:06:26;5.40;;;3.08;;
73337;SDS011;61575;49.908;35.556;2023-11-18T11:09:32;6.40;;;3.22;;
73337;SDS011;61575;49.908;35.556;2023-11-18T11:12:39;5.60;;;2.90;;
73337;SDS011;61575;49.908;35.556;2023-11-18T11:15:53;7.70;;;3.80;;
73337;SDS011;61575;49.908;35.556;2023-11-18T11:18:58;5.50;;;2.80;;
73337;SDS011;61575;49.908;35.556;2023-11-18T11:22:10;5.32;;;2.78;;
73337;SDS011;61575;49.908;35.556;2023-11-18T11:25:21;5.47;;;2.80;;
73337;SDS011;61575;49.908;35.556;2023-11-18T11:28:28;6.30;;;3.13;;
73337;SDS011;61575;49.908;35.556;2023-11-18T11:35:33;5.05;;;2.92;;
73337;SDS011;61575;49.908;35.556;2023-11-18T11:38:39;6.25;;;3.50;;
73337;SDS011;61575;49.908;35.556;2023-11-18T11:41:43;6.37;;;3.87;;
73337;SDS011;61575;49.908;35.556;2023-11-18T11:44:48;6.72;;;3.80;;
73337;SDS011;61575;49.908;35.556;2023-11-18T11:47:55;6.05;;;3.30;;
73337;SDS011;61575;49.908;35.556;2023-11-18T11:51:20;5.93;;;2.92;;
73337;SDS011;61575;49.908;35.556;2023-11-18T11:54:29;5.75;;;3.00;;
73337;SDS011;61575;49.908;35.556;2023-11-18T11:57:39;5.43;;;2.80;;
73337;SDS011;61575;49.908;35.556;2023-11-18T12:00:44;6.32;;;2.95;;
73337;SDS011;61575;49.908;35.556;2023-11-18T12:03:46;8.77;;;3.78;;
73337;SDS011;61575;49.908;35.556;2023-11-18T12:06:50;5.40;;;3.00;;
73337;SDS011;61575;49.908;35.556;2023-11-18T12:10:12;5.30;;;2.83;;
73337;SDS011;61575;49.908;35.556;2023-11-18T12:13:22;6.75;;;3.17;;
73337;SDS011;61575;49.908;35.556;2023-11-18T12:16:57;6.43;;;3.05;;
73337;SDS011;61575;49.908;35.556;2023-11-18T12:30:42;12.18;;;5.40;;
73337;SDS011;61575;49.908;35.556;2023-11-18T12:40:52;7.20;;;3.60;;
73337;SDS011;61575;49.908;35.556;2023-11-18T12:47:24;6.88;;;3.65;;
73337;SDS011;61575;49.908;35.556;2023-11-18T12:50:30;7.65;;;4.90;;
73337;SDS011;61575;49.908;35.556;2023-11-18T12:53:36;7.13;;;3.80;;
73337;SDS011;61575;49.908;35.556;2023-11-18T12:56:38;7.05;;;3.70;;
73337;SDS011;61575;49.908;35.556;2023-11-18T12:59:42;13.80;;;8.35;;
73337;SDS011;61575;49.908;35.556;2023-11-18T13:02:45;8.98;;;5.13;;
73337;SDS011;61575;49.908;35.556;2023-11-18T13:05:47;7.28;;;3.40;;
73337;SDS011;61575;49.908;35.556;2023-11-18T13:08:51;6.38;;;3.50;;
73337;SDS011;61575;49.908;35.556;2023-11-18T13:15:44;5.47;;;3.03;;
73337;SDS011;61575;49.908;35.556;2023-11-18T13:18:48;7.13;;;3.70;;
73337;SDS011;61575;49.908;35.556;2023-11-18T13:22:11;6.38;;;3.83;;
73337;SDS011;61575;49.908;35.556;2023-11-18T13:25:15;5.57;;;3.10;;
73337;SDS011;61575;49.908;35.556;2023-11-18T13:28:19;6.40;;;3.30;;
73337;SDS011;61575;49.908;35.556;2023-11-18T13:31:24;7.40;;;3.40;;
73337;SDS011;61575;49.908;35.556;2023-11-18T13:34:26;6.50;;;3.60;;
73337;SDS011;61575;49.908;35.556;2023-11-18T13:40:44;8.00;;;4.40;;
73337;SDS011;61575;49.908;35.556;2023-11-18T13:43:49;7.20;;;3.90;;
73337;SDS011;61575;49.908;35.556;2023-11-18T13:46:54;5.80;;;2.95;;
73337;SDS011;61575;49.908;35.556;2023-11-18T13:49:57;6.80;;;3.97;;
73337;SDS011;61575;49.908;35.556;2023-11-18T13:53:02;6.28;;;3.00;;
73337;SDS011;61575;49.908;35.556;2023-11-18T13:56:06;6.35;;;3.65;;
73337;SDS011;61575;49.908;35.556;2023-11-18T13:59:11;7.25;;;3.78;;
73337;SDS011;61575;49.908;35.556;2023-11-18T14:02:13;7.88;;;4.95;;
73337;SDS011;61575;49.908;35.556;2023-11-18T14:05:15;6.83;;;3.93;;
73337;SDS011;61575;49.908;35.556;2023-11-18T14:08:22;12.73;;;6.28;;
73337;SDS011;61575;49.908;35.556;2023-11-18T14:11:24;7.97;;;4.13;;
73337;SDS011;61575;49.908;35.556;2023-11-18T14:14:26;6.55;;;3.92;;
73337;SDS011;61575;49.908;35.556;2023-11-18T14:17:29;9.25;;;4.15;;
73337;SDS011;61575;49.908;35.556;2023-11-18T14:20:31;7.72;;;4.25;;
73337;SDS011;61575;49.908;35.556;2023-11-18T14:23:33;7.82;;;3.83;;
73337;SDS011;61575;49.908;35.556;2023-11-18T14:26:36;6.85;;;3.90;;
73337;SDS011;61575;49.908;35.556;2023-11-18T14:32:40;5.95;;;3.25;;
73337;SDS011;61575;49.908;35.556;2023-11-18T14:35:45;6.83;;;3.60;;
73337;SDS011;61575;49.908;35.556;2023-11-18T14:38:48;25.02;;;11.30;;
73337;SDS011;61575;49.908;35.556;2023-11-18T14:41:50;16.80;;;10.27;;
73337;SDS011;61575;49.908;35.556;2023-11-18T14:44:52;11.48;;;6.03;;
73337;SDS011;61575;49.908;35.556;2023-11-18T14:47:54;10.53;;;5.37;;
73337;SDS011;61575;49.908;35.556;2023-11-18T14:50:57;10.55;;;7.00;;
73337;SDS011;61575;49.908;35.556;2023-11-18T14:53:59;13.87;;;7.10;;
73337;SDS011;61575;49.908;35.556;2023-11-18T14:57:01;12.73;;;7.13;;
73337;SDS011;61575;49.908;35.556;2023-11-18T15:00:05;14.70;;;7.30;;
73337;SDS011;61575;49.908;35.556;2023-11-18T15:03:20;11.73;;;5.95;;
73337;SDS011;61575;49.908;35.556;2023-11-18T15:06:26;19.20;;;8.60;;
73337;SDS011;61575;49.908;35.556;2023-11-18T15:09:29;17.17;;;8.95;;
73337;SDS011;61575;49.908;35.556;2023-11-18T15:12:33;11.18;;;6.32;;
73337;SDS011;61575;49.908;35.556;2023-11-18T15:15:36;8.90;;;5.13;;
73337;SDS011;61575;49.908;35.556;2023-11-18T15:18:38;7.13;;;4.07;;
73337;SDS011;61575;49.908;35.556;2023-11-18T15:21:40;7.30;;;4.27;;
73337;SDS011;61575;49.908;35.556;2023-11-18T15:24:42;7.70;;;3.97;;
73337;SDS011;61575;49.908;35.556;2023-11-18T15:27:44;8.40;;;4.57;;
73337;SDS011;61575;49.908;35.556;2023-11-18T15:30:47;10.25;;;4.57;;
73337;SDS011;61575;49.908;35.556;2023-11-18T15:36:52;9.52;;;4.65;;
73337;SDS011;61575;49.908;35.556;2023-11-18T15:39:54;10.88;;;5.05;;
73337;SDS011;61575;49.908;35.556;2023-11-18T15:42:57;10.85;;;5.40;;
73337;SDS011;61575;49.908;35.556;2023-11-18T15:45:59;8.90;;;4.07;;
73337;SDS011;61575;49.908;35.556;2023-11-18T15:49:01;11.25;;;5.30;;
73337;SDS011;61575;49.908;35.556;2023-11-18T15:52:03;10.88;;;4.95;;
73337;SDS011;61575;49.908;35.556;2023-11-18T15:55:09;7.95;;;4.38;;
73337;SDS011;61575;49.908;35.556;2023-11-18T15:58:11;7.70;;;4.30;;
73337;SDS011;61575;49.908;35.556;2023-11-18T16:04:16;8.48;;;5.22;;
73337;SDS011;61575;49.908;35.556;2023-11-18T16:07:18;7.85;;;4.05;;
73337;SDS011;61575;49.908;35.556;2023-11-18T16:10:21;7.97;;;3.70;;
73337;SDS011;61575;49.908;35.556;2023-11-18T16:13:24;8.07;;;4.32;;
73337;SDS011;61575;49.908;35.556;2023-11-18T16:16:26;8.30;;;4.07;;
73337;SDS011;61575;49.908;35.556;2023-11-18T16:22:30;7.35;;;3.88;;
73337;SDS011;61575;49.908;35.556;2023-11-18T16:25:32;9.77;;;3.80;;
73337;SDS011;61575;49.908;35.556;2023-11-18T16:28:39;7.93;;;4.43;;
73337;SDS011;61575;49.908;35.556;2023-11-18T16:31:41;7.18;;;4.20;;
73337;SDS011;61575;49.908;35.556;2023-11-18T16:34:43;7.78;;;4.10;;
73337;SDS011;61575;49.908;35.556;2023-11-18T16:37:46;7.68;;;3.90;;
73337;SDS011;61575;49.908;35.556;2023-11-18T16:40:49;7.97;;;4.07;;
73337;SDS011;61575;49.908;35.556;2023-11-18T16:43:51;7.50;;;3.67;;
73337;SDS011;61575;49.908;35.556;2023-11-18T16:46:53;7.60;;;3.65;;
73337;SDS011;61575;49.908;35.556;2023-11-18T16:49:55;6.32;;;3.20;;
73337;SDS011;61575;49.908;35.556;2023-11-18T16:53:04;6.88;;;4.15;;
73337;SDS011;61575;49.908;35.556;2023-11-18T16:56:08;7.85;;;3.60;;
73337;SDS011;61575;49.908;35.556;2023-11-18T16:59:10;12.95;;;7.13;;
73337;SDS011;61575;49.908;35.556;2023-11-18T17:02:14;23.90;;;11.10;;
73337;SDS011;61575;49.908;35.556;2023-11-18T17:08:18;51.22;;;20.05;;
73337;SDS011;61575;49.908;35.556;2023-11-18T17:11:20;34.70;;;18.25;;
73337;SDS011;61575;49.908;35.556;2023-11-18T17:14:23;12.50;;;6.90;;
73337;SDS011;61575;49.908;35.556;2023-11-18T17:17:24;10.47;;;5.43;;
73337;SDS011;61575;49.908;35.556;2023-11-18T17:20:27;9.90;;;4.17;;
73337;SDS011;61575;49.908;35.556;2023-11-18T17:23:29;12.00;;;5.85;;
73337;SDS011;61575;49.908;35.556;2023-11-18T17:26:33;8.27;;;4.00;;
73337;SDS011;61575;49.908;35.556;2023-11-18T17:29:40;9.05;;;4.50;;
73337;SDS011;61575;49.908;35.556;2023-11-18T17:32:42;7.67;;;3.77;;
73337;SDS011;61575;49.908;35.556;2023-11-18T17:35:51;6.68;;;3.70;;
73337;SDS011;61575;49.908;35.556;2023-11-18T17:41:55;7.00;;;3.90;;
73337;SDS011;61575;49.908;35.556;2023-11-18T17:44:57;6.57;;;3.38;;
73337;SDS011;61575;49.908;35.556;2023-11-18T17:48:02;8.02;;;3.85;;
73337;SDS011;61575;49.908;35.556;2023-11-18T17:51:08;8.50;;;3.85;;
73337;SDS011;61575;49.908;35.556;2023-11-18T17:54:10;7.15;;;3.80;;
73337;SDS011;61575;49.908;35.556;2023-11-18T17:57:13;7.55;;;3.95;;
73337;SDS011;61575;49.908;35.556;2023-11-18T18:00:16;7.60;;;3.75;;
73337;SDS011;61575;49.908;35.556;2023-11-18T18:03:25;7.78;;;4.10;;
73337;SDS011;61575;49.908;35.556;2023-11-18T18:06:28;7.05;;;3.75;;
73337;SDS011;61575;49.908;35.556;2023-11-18T18:09:30;5.88;;;3.30;;
73337;SDS011;61575;49.908;35.556;2023-11-18T18:12:32;7.32;;;3.53;;
73337;SDS011;61575;49.908;35.556;2023-11-18T18:15:34;6.87;;;3.80;;
73337;SDS011;61575;49.908;35.556;2023-11-18T18:18:36;7.17;;;4.00;;
73337;SDS011;61575;49.908;35.556;2023-11-18T18:21:39;7.45;;;3.78;;
73337;SDS011;61575;49.908;35.556;2023-11-18T18:24:41;8.70;;;3.70;;
73337;SDS011;61575;49.908;35.556;2023-11-18T18:27:43;8.57;;;3.80;;
73337;SDS011;61575;49.908;35.556;2023-11-18T18:33:48;10.98;;;4.30;;
73337;SDS011;61575;49.908;35.556;2023-11-18T18:36:52;7.70;;;3.78;;
73337;SDS011;61575;49.908;35.556;2023-11-18T18:39:54;7.72;;;3.65;;
73337;SDS011;61575;49.908;35.556;2023-11-18T18:42:57;12.50;;;4.32;;
73337;SDS011;61575;49.908;35.556;2023-11-18T18:45:59;10.93;;;4.37;;
73337;SDS011;61575;49.908;35.556;2023-11-18T18:49:02;8.23;;;4.22;;
73337;SDS011;61575;49.908;35.556;2023-11-18T18:52:04;6.13;;;3.10;;
73337;SDS011;61575;49.908;35.556;2023-11-18T18:55:06;8.60;;;4.32;;
73337;SDS011;61575;49.908;35.556;2023-11-18T18:58:09;8.98;;;4.60;;
73337;SDS011;61575;49.908;35.556;2023-11-18T19:01:11;7.10;;;3.83;;
73337;SDS011;61575;49.908;35.556;2023-11-18T19:04:13;7.80;;;3.87;;
73337;SDS011;61575;49.908;35.556;2023-11-18T19:07:15;5.53;;;3.03;;
73337;SDS011;61575;49.908;35.556;2023-11-18T19:10:20;6.65;;;4.10;;
73337;SDS011;61575;49.908;35.556;2023-11-18T19:13:22;6.88;;;3.85;;
73337;SDS011;61575;49.908;35.556;2023-11-18T19:16:24;7.93;;;4.30;;
73337;SDS011;61575;49.908;35.556;2023-11-18T19:19:26;7.67;;;4.27;;
73337;SDS011;61575;49.908;35.556;2023-11-18T19:22:28;16.55;;;7.18;;
73337;SDS011;61575;49.908;35.556;2023-11-18T19:25:30;7.50;;;4.07;;
73337;SDS011;61575;49.908;35.556;2023-11-18T19:28:32;8.43;;;4.43;;
73337;SDS011;61575;49.908;35.556;2023-11-18T19:31:34;7.55;;;3.97;;